createdAt,value
2022-12-03T00:01:24.713Z,26.45
2022-12-03T00:03:54.934Z,26.20
2022-12-03T00:06:22.912Z,26.30
2022-12-03T00:08:50.800Z,27.58
2022-12-03T00:11:18.634Z,27.67
2022-12-03T00:13:46.522Z,24.05
2022-12-03T00:16:14.423Z,27.52
2022-12-03T00:18:43.219Z,25.13
2022-12-03T00:21:12.382Z,26.27
2022-12-03T00:23:42.212Z,24.45
2022-12-03T00:26:10.653Z,23.73
2022-12-03T00:28:38.457Z,24.90
2022-12-03T00:31:06.759Z,25.17
2022-12-03T00:33:34.599Z,26.35
2022-12-03T00:36:02.748Z,25.70
2022-12-03T00:38:31.921Z,25.85
2022-12-03T00:40:59.755Z,25.35
2022-12-03T00:43:27.685Z,25.08
2022-12-03T00:45:55.539Z,26.50
2022-12-03T00:48:23.359Z,24.55
2022-12-03T00:50:51.416Z,23.73
2022-12-03T00:53:19.272Z,25.73
2022-12-03T00:55:50.831Z,23.98
2022-12-03T00:58:19.139Z,22.83
2022-12-03T01:00:46.963Z,21.73
2022-12-03T01:03:14.819Z,21.52
2022-12-03T01:05:42.947Z,22.85
2022-12-03T01:08:11.490Z,24.17
2022-12-03T01:10:39.482Z,22.88
2022-12-03T01:13:08.653Z,21.45
2022-12-03T01:15:36.779Z,22.20
2022-12-03T01:18:04.766Z,21.73
2022-12-03T01:20:32.820Z,21.75
2022-12-03T01:23:01.005Z,21.60
2022-12-03T01:25:28.851Z,21.92
2022-12-03T01:27:56.897Z,22.10
2022-12-03T01:30:26.149Z,19.50
2022-12-03T01:32:53.264Z,21.23
2022-12-03T01:35:21.165Z,20.33
2022-12-03T01:37:48.972Z,18.80
2022-12-03T01:40:20.838Z,19.58
2022-12-03T01:42:48.686Z,20.03
2022-12-03T01:45:21.948Z,19.85
2022-12-03T01:47:51.327Z,19.05
2022-12-03T01:50:21.772Z,19.83
2022-12-03T01:52:49.734Z,18.73
2022-12-03T01:55:19.445Z,20.42
2022-12-03T01:57:48.880Z,17.70
2022-12-03T02:00:17.871Z,20.27
2022-12-03T02:02:46.208Z,19.63
2022-12-03T02:05:18.636Z,18.27
2022-12-03T02:07:46.946Z,16.35
2022-12-03T02:10:15.763Z,18.00
2022-12-03T02:12:46.339Z,18.80
2022-12-03T02:15:14.475Z,19.15
2022-12-03T02:17:43.264Z,17.30
2022-12-03T02:20:12.405Z,18.45
2022-12-03T02:22:47.592Z,21.27
2022-12-03T02:25:21.007Z,19.67
2022-12-03T02:27:49.267Z,18.90
2022-12-03T02:30:19.270Z,18.83
2022-12-03T02:32:48.134Z,19.17
2022-12-03T02:35:17.035Z,19.50
2022-12-03T02:37:45.970Z,19.83
2022-12-03T02:40:15.549Z,18.38
2022-12-03T02:42:45.324Z,20.15
2022-12-03T02:45:14.611Z,20.90
2022-12-03T02:47:44.275Z,18.88
2022-12-03T02:50:13.349Z,19.20
2022-12-03T02:52:42.241Z,19.67
2022-12-03T02:55:10.464Z,19.02
2022-12-03T02:57:38.865Z,19.10
2022-12-03T03:00:09.869Z,19.27
2022-12-03T03:02:38.640Z,21.83
2022-12-03T03:05:07.821Z,18.30
2022-12-03T03:07:36.100Z,19.83
2022-12-03T03:10:04.359Z,21.05
2022-12-03T03:12:36.194Z,19.88
2022-12-03T03:15:10.373Z,19.88
2022-12-03T03:17:38.521Z,18.88
2022-12-03T03:20:07.342Z,21.00
2022-12-03T03:22:36.151Z,19.70
2022-12-03T03:25:04.585Z,20.52
2022-12-03T03:27:32.427Z,20.88
2022-12-03T03:30:00.857Z,20.20
2022-12-03T03:32:31.159Z,20.67
2022-12-03T03:34:59.071Z,19.00
2022-12-03T03:37:27.097Z,21.45
2022-12-03T03:39:55.115Z,22.17
2022-12-03T03:42:23.563Z,23.38
2022-12-03T03:44:51.941Z,22.83
2022-12-03T03:47:20.592Z,23.73
2022-12-03T03:49:50.827Z,20.83
2022-12-03T03:52:19.070Z,21.33
2022-12-03T03:54:47.416Z,22.05
2022-12-03T03:57:15.488Z,22.30
2022-12-03T03:59:43.486Z,20.65
2022-12-03T04:02:17.504Z,20.67
2022-12-03T04:04:45.496Z,21.52
2022-12-03T04:07:14.773Z,20.73
2022-12-03T04:09:42.629Z,17.70
2022-12-03T04:12:28.559Z,22.42
2022-12-03T04:14:56.400Z,19.40
2022-12-03T04:20:07.502Z,17.52
2022-12-03T04:22:41.568Z,19.38
2022-12-03T04:25:28.537Z,21.10
2022-12-03T04:28:14.156Z,17.45
2022-12-03T04:30:42.154Z,19.55
2022-12-03T04:33:27.811Z,20.08
2022-12-03T04:35:55.785Z,17.85
2022-12-03T04:38:25.026Z,21.52
2022-12-03T04:41:01.790Z,20.10
2022-12-03T04:43:30.149Z,21.02
2022-12-03T04:45:58.339Z,19.67
2022-12-03T04:48:26.283Z,21.45
2022-12-03T04:50:54.507Z,18.40
2022-12-03T04:53:22.475Z,21.27
2022-12-03T04:55:51.655Z,19.55
2022-12-03T04:58:19.687Z,19.83
2022-12-03T05:00:47.785Z,22.45
2022-12-03T05:03:15.626Z,20.88
2022-12-03T05:05:43.712Z,18.17
2022-12-03T05:08:11.639Z,18.20
2022-12-03T05:10:39.568Z,19.70
2022-12-03T05:13:09.113Z,18.77
2022-12-03T05:15:36.983Z,19.45
2022-12-03T05:18:04.957Z,18.70
2022-12-03T05:20:51.463Z,19.15
2022-12-03T05:23:21.008Z,16.58
2022-12-03T05:25:50.968Z,19.73
2022-12-03T05:28:22.197Z,18.13
2022-12-03T05:30:50.188Z,18.75
2022-12-03T05:33:18.354Z,17.83
2022-12-03T05:35:46.233Z,16.80
2022-12-03T05:38:14.307Z,17.17
2022-12-03T05:40:42.189Z,16.90
2022-12-03T05:43:09.051Z,17.75
2022-12-03T05:45:39.922Z,16.52
2022-12-03T05:48:09.127Z,17.10
2022-12-03T05:50:38.028Z,15.95
2022-12-03T05:53:06.378Z,15.55
2022-12-03T05:55:34.490Z,15.82
2022-12-03T05:58:02.359Z,16.17
2022-12-03T06:00:31.533Z,14.07
2022-12-03T06:03:01.096Z,15.93
2022-12-03T06:05:29.253Z,16.13
2022-12-03T06:07:57.400Z,14.15
2022-12-03T06:10:26.555Z,15.02
2022-12-03T06:12:57.441Z,14.27
2022-12-03T06:15:25.314Z,15.50
2022-12-03T06:17:53.417Z,15.25
2022-12-03T06:20:22.707Z,15.05
2022-12-03T06:22:50.781Z,15.43
2022-12-03T06:25:18.950Z,14.70
2022-12-03T06:27:47.007Z,14.32
2022-12-03T06:30:15.321Z,15.48
2022-12-03T06:32:43.414Z,13.43
2022-12-03T06:35:11.474Z,14.10
2022-12-03T06:37:40.670Z,14.57
2022-12-03T06:40:09.252Z,13.45
2022-12-03T06:42:37.673Z,14.52
2022-12-03T06:45:06.277Z,13.95
2022-12-03T06:47:34.270Z,15.57
2022-12-03T06:50:02.208Z,15.30
2022-12-03T06:52:30.531Z,12.77
2022-12-03T06:54:59.952Z,14.35
2022-12-03T06:57:27.976Z,14.13
2022-12-03T06:59:56.232Z,13.38
2022-12-03T07:02:24.356Z,16.05
2022-12-03T07:04:52.239Z,15.93
2022-12-03T07:07:20.656Z,14.90
2022-12-03T07:09:48.641Z,15.45
2022-12-03T07:12:20.707Z,15.65
2022-12-03T07:14:48.928Z,15.85
2022-12-03T07:17:16.953Z,16.45
2022-12-03T07:19:44.831Z,17.02
2022-12-03T07:22:12.933Z,17.02
2022-12-03T07:24:41.239Z,15.82
2022-12-03T07:27:09.139Z,14.63
2022-12-03T07:29:38.581Z,15.75
2022-12-03T07:32:06.810Z,15.60
2022-12-03T07:34:34.636Z,16.20
2022-12-03T07:37:02.498Z,17.45
2022-12-03T07:39:31.226Z,17.15
2022-12-03T07:41:59.286Z,15.57
2022-12-03T07:44:28.236Z,17.40
2022-12-03T07:46:57.414Z,18.17
2022-12-03T07:49:26.891Z,16.48
2022-12-03T07:51:54.817Z,17.10
2022-12-03T07:54:22.686Z,18.17
2022-12-03T07:56:50.639Z,17.77
2022-12-03T07:59:18.928Z,18.95
2022-12-03T08:01:47.151Z,21.08
2022-12-03T08:04:19.024Z,21.65
2022-12-03T08:06:47.156Z,20.08
2022-12-03T08:09:17.859Z,20.40
2022-12-03T08:11:46.785Z,18.83
2022-12-03T08:14:15.708Z,17.65
2022-12-03T08:16:44.351Z,18.60
2022-12-03T08:19:13.285Z,18.63
2022-12-03T08:21:42.891Z,18.73
2022-12-03T08:24:13.913Z,17.80
2022-12-03T08:26:44.068Z,20.30
2022-12-03T08:29:12.791Z,19.95
2022-12-03T08:31:41.102Z,19.40
2022-12-03T08:34:16.573Z,18.60
2022-12-03T08:36:46.181Z,17.98
2022-12-03T08:39:26.833Z,20.65
2022-12-03T08:42:13.936Z,19.25
2022-12-03T08:44:42.724Z,19.98
2022-12-03T08:47:14.896Z,19.27
2022-12-03T08:49:43.499Z,18.60
2022-12-03T08:52:16.233Z,20.50
2022-12-03T08:54:44.712Z,21.67
2022-12-03T08:57:23.820Z,22.73
2022-12-03T08:59:52.626Z,21.38
2022-12-03T09:02:25.195Z,19.08
2022-12-03T09:04:54.714Z,19.45
2022-12-03T09:07:24.114Z,19.58
2022-12-03T09:09:51.956Z,19.83
2022-12-03T09:12:19.797Z,21.25
2022-12-03T09:14:47.717Z,20.63
2022-12-03T09:17:15.988Z,20.77
2022-12-03T09:19:46.181Z,22.63
2022-12-03T09:22:15.323Z,19.65
2022-12-03T09:24:46.461Z,21.30
2022-12-03T09:27:14.351Z,21.15
2022-12-03T09:29:42.503Z,23.13
2022-12-03T09:32:15.124Z,24.65
2022-12-03T09:34:45.974Z,22.88
2022-12-03T09:37:13.842Z,22.52
2022-12-03T09:39:42.101Z,23.67
2022-12-03T09:42:12.035Z,24.27
2022-12-03T09:44:40.025Z,24.25
2022-12-03T09:47:08.357Z,22.98
2022-12-03T09:49:37.589Z,23.80
2022-12-03T09:52:06.660Z,24.50
2022-12-03T09:54:34.722Z,25.95
2022-12-03T09:57:03.478Z,24.35
2022-12-03T09:59:33.261Z,24.10
2022-12-03T10:02:01.339Z,25.08
2022-12-03T10:04:29.681Z,24.60
2022-12-03T10:06:58.259Z,25.08
2022-12-03T10:09:27.194Z,23.23
2022-12-03T10:11:55.705Z,23.83
2022-12-03T10:14:23.681Z,24.40
2022-12-03T10:16:53.322Z,25.95
2022-12-03T10:19:23.389Z,24.52
2022-12-03T10:21:51.267Z,23.67
2022-12-03T10:24:23.590Z,24.80
2022-12-03T10:26:52.000Z,25.63
2022-12-03T10:29:21.002Z,26.30
2022-12-03T10:31:55.459Z,26.90
2022-12-03T10:34:30.518Z,25.02
2022-12-03T10:37:12.480Z,23.85
2022-12-03T10:39:56.867Z,24.50
2022-12-03T10:42:25.739Z,25.05
2022-12-03T10:45:08.042Z,25.15
2022-12-03T10:47:36.355Z,26.38
2022-12-03T10:50:07.303Z,29.25
2022-12-03T10:52:35.104Z,26.20
2022-12-03T10:55:03.026Z,26.90
2022-12-03T10:57:30.917Z,28.35
2022-12-03T10:59:59.035Z,26.65
2022-12-03T11:02:27.122Z,26.30
2022-12-03T11:04:55.775Z,29.40
2022-12-03T11:07:26.205Z,26.13
2022-12-03T11:09:55.920Z,25.60
2022-12-03T11:12:24.935Z,26.75
2022-12-03T11:15:06.427Z,28.25
2022-12-03T11:17:45.252Z,26.58
2022-12-03T11:20:34.229Z,27.52
2022-12-03T11:23:03.504Z,29.00
2022-12-03T11:25:50.373Z,26.63
2022-12-03T11:28:32.290Z,26.70
2022-12-03T11:31:14.833Z,26.77
2022-12-03T11:33:44.742Z,27.60
2022-12-03T11:36:15.293Z,28.00
2022-12-03T11:38:55.492Z,27.33
2022-12-03T11:41:24.819Z,25.92
2022-12-03T11:44:11.231Z,28.58
2022-12-03T11:46:41.411Z,26.45
2022-12-03T11:49:24.397Z,27.48
2022-12-03T11:51:52.459Z,28.60
2022-12-03T11:54:23.566Z,26.75
2022-12-03T11:56:52.203Z,27.25
2022-12-03T11:59:20.099Z,28.75
2022-12-03T12:01:48.214Z,27.58
2022-12-03T12:04:29.386Z,26.75
2022-12-03T12:06:57.315Z,28.80
2022-12-03T12:09:43.998Z,27.55
2022-12-03T12:12:28.140Z,26.67
2022-12-03T12:14:56.292Z,28.85
2022-12-03T12:17:34.377Z,27.15
2022-12-03T12:20:24.520Z,29.65
2022-12-03T12:22:52.840Z,27.65
2022-12-03T12:25:37.360Z,27.85
2022-12-03T12:28:06.572Z,29.08
2022-12-03T12:30:34.803Z,26.30
2022-12-03T12:33:12.594Z,27.65
2022-12-03T12:35:41.646Z,26.85
2022-12-03T12:38:14.758Z,26.98
2022-12-03T12:40:45.360Z,26.95
2022-12-03T12:43:24.166Z,28.73
2022-12-03T12:45:54.244Z,28.95
2022-12-03T12:48:23.397Z,25.92
2022-12-03T12:50:53.044Z,28.52
2022-12-03T12:53:22.945Z,28.05
2022-12-03T12:55:54.780Z,28.83
2022-12-03T12:58:24.841Z,20.20
2022-12-03T13:00:54.038Z,26.20
2022-12-03T13:03:23.636Z,28.30
2022-12-03T13:05:52.399Z,28.30
2022-12-03T13:08:24.777Z,28.80
2022-12-03T13:10:53.343Z,26.48
2022-12-03T13:13:27.443Z,29.98
2022-12-03T13:15:59.675Z,28.55
2022-12-03T13:18:29.287Z,29.98
2022-12-03T13:20:57.143Z,28.45
2022-12-03T13:23:32.908Z,28.52
2022-12-03T13:26:13.588Z,28.02
2022-12-03T13:28:51.724Z,29.88
2022-12-03T13:31:22.949Z,30.80
2022-12-03T13:33:50.972Z,30.33
2022-12-03T13:36:20.230Z,27.33
2022-12-03T13:38:48.083Z,30.10
2022-12-03T13:41:31.100Z,30.08
2022-12-03T13:46:37.145Z,27.52
2022-12-03T13:49:11.749Z,32.15
2022-12-03T13:51:39.807Z,29.63
2022-12-03T13:54:14.584Z,32.30
2022-12-03T13:56:44.121Z,31.42
2022-12-03T13:59:11.963Z,32.78
2022-12-03T14:01:41.358Z,32.08
2022-12-03T14:04:09.258Z,33.28
2022-12-03T14:06:37.210Z,31.85
2022-12-03T14:09:05.305Z,33.47
2022-12-03T14:11:50.558Z,31.50
2022-12-03T14:14:18.437Z,32.60
2022-12-03T14:16:47.890Z,32.22
2022-12-03T14:19:15.796Z,33.33
2022-12-03T14:21:43.611Z,32.72
2022-12-03T14:24:11.580Z,30.80
2022-12-03T14:26:39.438Z,31.77
2022-12-03T14:29:08.906Z,32.22
2022-12-03T14:31:37.159Z,32.92
2022-12-03T14:34:06.460Z,32.00
2022-12-03T14:36:34.257Z,32.03
2022-12-03T14:39:02.218Z,34.15
2022-12-03T14:41:47.320Z,31.15
2022-12-03T14:44:15.137Z,32.80
2022-12-03T14:46:42.954Z,35.92
2022-12-03T14:49:12.798Z,33.03
2022-12-03T14:51:40.585Z,34.10
2022-12-03T14:54:08.999Z,33.05
2022-12-03T14:56:36.830Z,34.10
2022-12-03T14:59:04.642Z,35.53
2022-12-03T15:01:33.205Z,33.33
2022-12-03T15:04:01.102Z,33.45
2022-12-03T15:06:30.507Z,34.35
2022-12-03T15:08:58.362Z,35.10
2022-12-03T15:11:26.215Z,34.97
2022-12-03T15:13:54.375Z,34.08
2022-12-03T15:16:22.353Z,34.13
2022-12-03T15:18:50.231Z,32.63
2022-12-03T15:21:18.241Z,35.47
2022-12-03T15:23:47.503Z,34.88
2022-12-03T15:26:15.322Z,32.25
2022-12-03T15:28:48.108Z,32.90
2022-12-03T15:31:16.517Z,35.85
2022-12-03T15:33:44.374Z,34.00
2022-12-03T15:36:12.433Z,33.22
2022-12-03T15:41:28.720Z,32.97
2022-12-03T15:43:57.290Z,33.03
2022-12-03T15:47:19.795Z,34.03
2022-12-03T15:49:49.110Z,31.83
2022-12-03T15:52:17.045Z,30.98
2022-12-03T15:54:45.804Z,34.85
2022-12-03T15:57:15.314Z,32.72
2022-12-03T15:59:43.707Z,30.23
2022-12-03T16:02:11.983Z,32.05
2022-12-03T16:04:39.933Z,34.47
2022-12-03T16:07:07.817Z,32.95
2022-12-03T16:09:35.707Z,33.55
2022-12-03T16:12:03.686Z,34.47
2022-12-03T16:14:33.092Z,31.35
2022-12-03T16:17:01.027Z,31.88
2022-12-03T16:19:29.173Z,30.58
2022-12-03T16:21:57.232Z,33.47
2022-12-03T16:24:25.223Z,32.70
2022-12-03T16:26:53.056Z,34.35
2022-12-03T16:29:20.991Z,33.08
2022-12-03T16:31:50.251Z,30.65
2022-12-03T16:34:18.242Z,32.08
2022-12-03T16:36:46.509Z,30.08
2022-12-03T16:39:14.762Z,29.55
2022-12-03T16:41:42.739Z,28.27
2022-12-03T16:44:20.209Z,29.50
2022-12-03T16:46:48.139Z,29.38
2022-12-03T16:49:17.393Z,29.42
2022-12-03T16:51:45.630Z,29.92
2022-12-03T16:54:13.467Z,30.50
2022-12-03T16:56:41.333Z,30.45
2022-12-03T16:59:09.192Z,29.52
2022-12-03T17:01:37.301Z,30.98
2022-12-03T17:04:05.482Z,29.42
2022-12-03T17:06:34.671Z,32.10
2022-12-03T17:09:02.524Z,33.17
2022-12-03T17:11:30.395Z,28.17
2022-12-03T17:13:58.742Z,31.73
2022-12-03T17:16:26.711Z,31.02
2022-12-03T17:18:54.583Z,29.35
2022-12-03T17:21:22.435Z,30.83
2022-12-03T17:23:51.611Z,31.23
2022-12-03T17:26:19.847Z,29.75
2022-12-03T17:28:47.671Z,31.77
2022-12-03T17:31:15.539Z,31.88
2022-12-03T17:33:43.423Z,33.03
2022-12-03T17:36:11.266Z,29.90
2022-12-03T17:38:39.593Z,31.08
2022-12-03T17:41:08.842Z,28.85
2022-12-03T17:43:36.640Z,28.10
2022-12-03T17:46:05.160Z,30.38
2022-12-03T17:48:33.017Z,29.90
2022-12-03T17:51:01.577Z,29.40
2022-12-03T17:53:29.450Z,29.80
2022-12-03T17:55:57.515Z,28.52
2022-12-03T17:58:27.643Z,30.88
2022-12-03T18:01:00.488Z,28.50
2022-12-03T18:03:30.524Z,30.65
2022-12-03T18:05:58.506Z,29.00
2022-12-03T18:08:26.594Z,31.25
2022-12-03T18:10:54.501Z,31.35
2022-12-03T18:13:22.629Z,30.02
2022-12-03T18:15:52.259Z,29.58
2022-12-03T18:18:20.148Z,30.48
2022-12-03T18:20:48.306Z,28.27
2022-12-03T18:23:16.238Z,29.67
2022-12-03T18:25:44.090Z,29.50
2022-12-03T18:28:11.954Z,27.98
2022-12-03T18:30:40.025Z,27.58
2022-12-03T18:33:09.149Z,27.92
2022-12-03T18:35:37.070Z,27.67
2022-12-03T18:38:04.923Z,28.77
2022-12-03T18:40:32.791Z,26.38
2022-12-03T18:43:00.805Z,26.05
2022-12-03T18:45:28.906Z,26.60
2022-12-03T18:47:56.790Z,27.17
2022-12-03T18:50:28.386Z,28.05
2022-12-03T18:52:56.295Z,26.83
2022-12-03T18:55:24.404Z,27.83
2022-12-03T18:57:52.291Z,29.45
2022-12-03T19:00:20.425Z,27.02
2022-12-03T19:03:04.569Z,27.17
2022-12-03T19:05:35.392Z,29.83
2022-12-03T19:08:03.436Z,28.95
2022-12-03T19:10:31.473Z,28.58
2022-12-03T19:12:59.348Z,32.35
2022-12-03T19:15:27.168Z,29.02
2022-12-03T19:17:55.260Z,29.77
2022-12-03T19:20:23.165Z,32.03
2022-12-03T19:22:52.661Z,31.77
2022-12-03T19:25:20.515Z,29.42
2022-12-03T19:27:50.264Z,33.92
2022-12-03T19:30:18.362Z,31.90
2022-12-03T19:32:46.754Z,30.15
2022-12-03T19:35:14.626Z,30.35
2022-12-03T19:37:42.766Z,31.48
2022-12-03T19:40:12.342Z,29.38
2022-12-03T19:42:40.234Z,34.55
2022-12-03T19:45:08.517Z,29.63
2022-12-03T19:47:36.413Z,28.80
2022-12-03T19:50:07.322Z,27.77
2022-12-03T19:52:36.533Z,27.02
2022-12-03T19:55:05.480Z,30.38
2022-12-03T19:57:34.921Z,30.05
2022-12-03T20:00:03.862Z,27.27
2022-12-03T20:02:31.862Z,27.73
2022-12-03T20:05:00.037Z,28.42
2022-12-03T20:07:28.471Z,30.52
2022-12-03T20:09:57.051Z,29.25
2022-12-03T20:12:25.336Z,28.90
2022-12-03T20:14:54.837Z,28.25
2022-12-03T20:17:22.662Z,28.63
2022-12-03T20:19:51.546Z,29.70
2022-12-03T20:22:19.626Z,29.13
2022-12-03T20:24:47.810Z,25.73
2022-12-03T20:27:21.159Z,27.17
2022-12-03T20:29:50.836Z,27.45
2022-12-03T20:32:20.319Z,29.23
2022-12-03T20:34:49.591Z,28.27
2022-12-03T20:37:18.016Z,29.02
2022-12-03T20:39:47.560Z,27.95
2022-12-03T20:42:15.425Z,29.15
2022-12-03T20:44:43.232Z,27.17
2022-12-03T20:47:11.165Z,30.40
2022-12-03T20:49:40.376Z,27.83
2022-12-03T20:52:08.243Z,28.45
2022-12-03T20:54:36.857Z,26.20
2022-12-03T20:57:04.895Z,26.60
2022-12-03T20:59:33.011Z,29.15
2022-12-03T21:02:01.161Z,27.98
2022-12-03T21:04:29.129Z,27.25
2022-12-03T21:06:58.386Z,26.63
2022-12-03T21:09:26.238Z,26.33
2022-12-03T21:11:54.047Z,26.05
2022-12-03T21:14:21.923Z,26.83
2022-12-03T21:17:07.829Z,27.48
2022-12-03T21:19:36.903Z,29.35
2022-12-03T21:22:06.704Z,27.35
2022-12-03T21:24:34.661Z,29.05
2022-12-03T21:27:02.700Z,28.50
2022-12-03T21:29:30.504Z,26.90
2022-12-03T21:31:58.373Z,27.02
2022-12-03T21:34:29.032Z,28.83
2022-12-03T21:37:00.576Z,26.55
2022-12-03T21:39:30.044Z,26.70
2022-12-03T21:42:19.337Z,27.88
